Saint George, Vermont
Current Conditions -  °F | °C
As of 3:54 PM on Tuesday 21 Oct 2014 (Local Time) from KBTV Reporting Station
Light Rain Light Rain  
Wind Chill: 50°   Ceiling: 3000
Heat Index: 50°   Visibility: 4mi
Dew Point: 47°   Wind: 7mph
Humidity: 89%   Direction: 350°N
Pressure: 30"   Gusts: NA
Location:  44.4289°N, 73.0926°W
Report Text: KBTV 211954Z 35006KT 4SM -RA BR OVC030 10/08 A3000 RMK AO2 SLP159 P0003 T01000083 $
Loading
Personal Weather Stations






























Interactive Weather Map
Tropical Storm Tracking
New forecast layout! Learn more

10-Day Weather Forecast

Advertisements
Track Severe Weather on mobile